Flight Track Log - Related Links

Times and Time Zones

All times are in EST time to prevent confusion due to time zone crossing. See the JBU606 flight status page for this flight to view local times or setup timezone preferences in your user account.

Time Position Orientation Groundspeed Altitude Reporting Facility
EST Latitude Longitude Course Direction KTS MPH feet Rate Location/Type
Sat 10:39:46 AM 33.8296 -118.1656 135° Southeast 175 201 800  Level FlightAware ADS-B
Sat 10:40:47 AM 33.8524 -118.2188 297° West 226 260 2,300 2,400 Climbing FlightAware ADS-B
Sat 10:41:26 AM 33.8621 -118.2714 283° West 218 251 4,800 3,478 Climbing FlightAware ADS-B
Sat 10:41:56 AM 33.8682 -118.3066 282° West 223 257 6,300 3,107 Climbing FlightAware ADS-B
Sat 10:42:22 AM 33.8736 -118.3398 281° West 229 264 7,700 2,361 Climbing FlightAware ADS-B
Sat 10:42:57 AM 33.8805 -118.3875 280° West 270 311 8,700 1,143 Climbing FlightAware ADS-B
Sat 10:43:25 AM 33.8870 -118.4304 280° West 275 316 8,900 235 Climbing FlightAware ADS-B
Sat 10:43:48 AM 33.8907 -118.4554 280° West 275 316 8,900  Level FlightAware ADS-B
Sat 10:44:05 AM 33.8952 -118.4858 280° West 277 319 8,900  Level FlightAware ADS-B
Sat 10:44:32 AM 33.9022 -118.5327 280° West 278 320 8,900  Level FlightAware ADS-B
Sat 10:44:56 AM 33.9072 -118.5665 280° West 277 319 8,900  Level FlightAware ADS-B
Sat 10:45:36 AM 33.9160 -118.6251 280° West 276 318 8,900  Level FlightAware ADS-B
Sat 10:45:54 AM 33.9245 -118.6510 292° West 275 316 8,900  Level FlightAware ADS-B
Sat 10:46:15 AM 33.9469 -118.6708 324° Northwest 274 315 8,900  Level FlightAware ADS-B
Sat 10:46:37 AM 33.9721 -118.6857 334° Northwest 273 314 8,900  Level FlightAware ADS-B
Sat 10:47:26 AM 34.0350 -118.6803 North 280 322 8,900  Level FlightAware ADS-B
Sat 10:47:46 AM 34.0562 -118.6728 16° North 280 322 8,900  Level FlightAware ADS-B
Sat 10:48:05 AM 34.0817 -118.6638 16° North 279 321 8,900 667 Level FlightAware ADS-B
Sat 10:48:31 AM 34.1158 -118.6519 16° North 283 326 9,400 3,130 Climbing FlightAware ADS-B
Sat 10:48:51 AM 34.1350 -118.6453 16° North 291 335 11,300 2,762 Climbing FlightAware ADS-B
Sat 10:49:34 AM 34.1969 -118.6348 North 291 335 12,300 1,186 Climbing FlightAware ADS-B
Sat 10:50:17 AM 34.2496 -118.6545 343° North 331 381 13,000 1,390 Climbing FlightAware ADS-B
Sat 10:50:56 AM 34.3136 -118.6788 343° North 364 419 14,200 2,436 Climbing FlightAware ADS-B
Sat 10:51:58 AM 34.4066 -118.7130 343° North 358 412 17,100 2,509 Climbing FlightAware ADS-B
Sat 10:52:46 AM 34.4947 -118.7457 343° North 373 429 18,800 2,191 Climbing FlightAware ADS-B
Sat 10:53:53 AM 34.6052 -118.7867 343° North 375 432 21,300 2,018 Climbing FlightAware ADS-B
Sat 10:54:39 AM 34.6841 -118.8160 343° North 383 441 22,600 1,862 Climbing FlightAware ADS-B
Sat 10:55:20 AM 34.7553 -118.8427 343° North 382 440 24,000 2,444 Climbing FlightAware ADS-B
Sat 10:56:00 AM 34.8175 -118.8661 343° North 362 417 25,900 1,531 Climbing FlightAware ADS-B
Sat 10:56:58 AM 34.9130 -118.9028 343° North 390 449 26,500 938 Climbing FlightAware ADS-B
Sat 10:57:36 AM 34.9827 -118.9296 342° North 393 452 27,400 1,630 Climbing FlightAware ADS-B
Sat 10:58:19 AM 35.0511 -118.9560 343° North 386 444 28,700 1,650 Climbing FlightAware ADS-B
Sat 10:58:56 AM 35.1212 -118.9763 347° North 385 443 29,600 1,111 Climbing FlightAware ADS-B
Sat 10:59:40 AM 35.1952 -118.9964 347° North 393 452 30,200 944 Climbing FlightAware ADS-B
Sat 11:00:25 AM 35.2739 -119.0192 347° North 395 455 31,000 1,047 Climbing FlightAware ADS-B
Sat 11:01:06 AM 35.3500 -119.0415 347° North 397 457 31,700 966 Climbing FlightAware ADS-B
Sat 11:01:52 AM 35.4223 -119.0626 347° North 400 460 32,400 765 Climbing FlightAware ADS-B
Sat 11:02:48 AM 35.5341 -119.0954 347° North 411 473 33,000 785 Climbing FlightAware ADS-B
Sat 11:03:39 AM 35.6294 -119.1233 347° North 415 478 33,800 659 Climbing FlightAware ADS-B
Sat 11:04:19 AM 35.6984 -119.1436 347° North 406 467 34,000 111 Climbing FlightAware ADS-B
Sat 11:05:27 AM 35.8059 -119.1755 346° North 405 466 34,000  Level FlightAware ADS-B
Sat 11:06:20 AM 35.9106 -119.2064 346° North 407 468 34,000  Level Oakland Center
Sat 11:07:21 AM 36.0181 -119.2400 346° North 402 463 34,000  Level Oakland Center
Sat 11:08:22 AM 36.1228 -119.2697 347° North 394 453 34,000  Level Oakland Center
Sat 11:09:24 AM 36.2278 -119.3014 346° North 390 449 34,000 -49 Level Oakland Center
Sat 11:10:25 AM 36.3325 -119.3336 346° North 388 447 33,900 -49 Descending Oakland Center
Sat 11:11:26 AM 36.4578 -119.3714 346° North 388 447 33,900 49 Level Oakland Center
Sat 11:12:27 AM 36.5622 -119.4028 346° North 387 445 34,000 49 Climbing Oakland Center
Sat 11:13:28 AM 36.6681 -119.4344 347° North 392 451 34,000  Level Oakland Center
Sat 11:14:29 AM 36.7744 -119.4656 347° North 393 452 34,000  Level Oakland Center
Sat 11:15:30 AM 36.8786 -119.4989 346° North 390 449 34,000  Level Oakland Center
Sat 11:16:31 AM 36.9856 -119.5306 347° North 393 452 34,000  Level Oakland Center
Sat 11:17:32 AM 37.0906 -119.5622 346° North 390 449 34,000  Level Oakland Center
Sat 11:18:33 AM 37.1939 -119.5944 346° North 386 444 34,000 -49 Level Oakland Center
Sat 11:19:34 AM 37.2961 -119.6253 347° North 379 436 33,900  Descending Oakland Center
Sat 11:20:36 AM 37.4125 -119.6625 346° North 382 440 34,000 49 Climbing Oakland Center
Sat 11:21:37 AM 37.5156 -119.6947 346° North 380 437 34,000  Level Oakland Center
Sat 11:22:38 AM 37.6186 -119.7250 347° North 380 437 34,000  Level Oakland Center
Sat 11:23:39 AM 37.7228 -119.7583 346° North 384 442 34,000  Level Oakland Center
Sat 11:29:46 AM 38.3354 -119.9490 346° North 368 423 34,000  Level FlightAware ADS-B
Sat 11:30:17 AM 38.4221 -119.9764 346° North 373 429 34,000  Level FlightAware ADS-B
Sat 11:31:14 AM 38.5158 -120.0061 346° North 377 434 34,000  Level FlightAware ADS-B
Sat 11:31:58 AM 38.5922 -120.0306 346° North 376 433 34,000  Level FlightAware ADS-B
Sat 11:32:37 AM 38.6595 -120.0523 346° North 376 433 34,000  Level FlightAware ADS-B
Sat 11:33:10 AM 38.7126 -120.0692 346° North 376 433 34,000  Level FlightAware ADS-B
Sat 11:33:58 AM 38.7915 -120.0945 346° North 368 423 34,000  Level FlightAware ADS-B
Sat 11:34:37 AM 38.8558 -120.1151 346° North 374 430 34,000 78 Level FlightAware ADS-B
Sat 11:35:15 AM 38.9234 -120.1367 346° North 370 426 34,100  Climbing FlightAware ADS-B
Sat 11:36:10 AM 39.0156 -120.1664 346° North 368 423 34,000 -70 Descending FlightAware ADS-B
Sat 11:36:41 AM 39.0667 -120.1829 346° North 366 421 34,000  Level FlightAware ADS-B
Sat 11:37:22 AM 39.1328 -120.2045 346° North 364 419 34,000  Level FlightAware ADS-B
Sat 11:38:02 AM 39.1979 -120.2257 346° North 364 419 34,000  Level FlightAware ADS-B
Sat 11:38:34 AM 39.2512 -120.2430 346° North 364 419 34,000  Level FlightAware ADS-B
Sat 11:39:14 AM 39.3156 -120.2640 346° North 364 419 34,000  Level FlightAware ADS-B
Sat 11:39:46 AM 39.3680 -120.2810 346° North 365 420 34,000  Level FlightAware ADS-B
Sat 11:40:26 AM 39.4335 -120.3024 346° North 368 423 34,000  Level FlightAware ADS-B
Sat 11:41:02 AM 39.4926 -120.3217 346° North 370 426 34,000  Level FlightAware ADS-B
Sat 11:41:42 AM 39.5598 -120.3438 346° North 370 426 34,000  Level FlightAware ADS-B
Sat 11:42:22 AM 39.6256 -120.3654 346° North 369 425 34,000  Level FlightAware ADS-B
Sat 11:43:03 AM 39.6945 -120.3881 346° North 369 425 34,000  Level FlightAware ADS-B
Sat 11:43:43 AM 39.7609 -120.4100 346° North 370 426 34,000  Level FlightAware ADS-B
Sat 11:44:22 AM 39.8244 -120.4310 346° North 369 425 34,000  Level FlightAware ADS-B
Sat 11:45:02 AM 39.8914 -120.4532 346° North 369 425 34,000  Level FlightAware ADS-B
Sat 11:45:46 AM 39.9635 -120.4772 346° North 371 427 34,000  Level FlightAware ADS-B
Sat 11:46:16 AM 40.0139 -120.4939 346° North 372 428 34,000  Level FlightAware ADS-B
Sat 11:47:02 AM 40.0911 -120.5195 346° North 374 430 34,000  Level FlightAware ADS-B
Sat 11:47:42 AM 40.1566 -120.5414 346° North 375 432 34,000  Level FlightAware ADS-B
Sat 11:48:18 AM 40.2174 -120.5618 346° North 375 432 34,000  Level FlightAware ADS-B
Sat 11:48:58 AM 40.2850 -120.5846 346° North 375 432 34,000  Level FlightAware ADS-B
Sat 11:49:38 AM 40.3520 -120.6071 346° North 374 430 34,000  Level FlightAware ADS-B
Sat 11:50:17 AM 40.4183 -120.6294 346° North 374 430 34,000  Level FlightAware ADS-B
Sat 11:50:50 AM 40.4718 -120.6473 346° North 373 429 34,000  Level FlightAware ADS-B
Sat 11:51:28 AM 40.5359 -120.6688 346° North 373 429 34,000  Level FlightAware ADS-B
Sat 11:52:10 AM 40.6067 -120.6927 346° North 373 429 34,000  Level FlightAware ADS-B
Sat 11:52:50 AM 40.6726 -120.7150 346° North 373 429 34,000  Level FlightAware ADS-B
Sat 11:53:22 AM 40.7248 -120.7329 345° North 372 428 34,000  Level FlightAware ADS-B
Sat 11:53:52 AM 40.7763 -120.7503 346° North 371 427 34,000  Level FlightAware ADS-B
Sat 11:54:38 AM 40.8499 -120.7754 346° North 370 426 34,000  Level FlightAware ADS-B
Sat 11:55:18 AM 40.9179 -120.7987 346° North 368 423 34,000  Level FlightAware ADS-B
Sat 11:55:50 AM 40.9718 -120.8170 346° North 366 421 34,000  Level FlightAware ADS-B
Sat 11:56:20 AM 41.0117 -120.8314 346° North 367 422 34,000  Level Oakland Center
Sat 11:57:17 AM 41.1094 -120.8653 345° North 363 418 34,000  Level Seattle Center
Sat 11:58:18 AM 41.2067 -120.8978 346° North 364 419 34,000  Level Seattle Center
Sat 11:59:19 AM 41.3039 -120.9314 345° North 362 417 34,000  Level Seattle Center
Sat 12:00:20 PM 41.4006 -120.9650 345° North 359 413 34,000  Level Seattle Center
Sat 12:01:21 PM 41.4958 -120.9989 345° North 358 412 34,000  Level Seattle Center
Sat 12:02:21 PM 41.5914 -121.0325 345° North 357 411 34,000  Level Seattle Center
Sat 12:03:22 PM 41.6847 -121.0664 345° North 354 407 34,000  Level Seattle Center
Sat 12:04:23 PM 41.7792 -121.0981 346° North 351 404 34,000  Level Seattle Center
Sat 12:05:24 PM 41.8722 -121.1311 345° North 349 402 34,000  Level Seattle Center
Sat 12:06:25 PM 41.9639 -121.1639 345° North 345 397 34,000  Level Seattle Center
Sat 12:07:26 PM 42.0567 -121.1958 346° North 347 399 34,000  Level Seattle Center
Sat 12:08:26 PM 42.1497 -121.2294 345° North 350 403 34,000  Level Seattle Center
Sat 12:09:27 PM 42.2622 -121.2694 345° North 358 412 34,000  Level Seattle Center
Sat 12:10:28 PM 42.3550 -121.3022 345° North 351 404 34,000  Level Seattle Center
Sat 12:11:29 PM 42.4486 -121.3369 345° North 353 406 34,000 -148 Level Seattle Center
Sat 12:12:30 PM 42.5419 -121.3706 345° North 349 402 33,700 -590 Descending Seattle Center
Sat 12:13:31 PM 42.6356 -121.4028 346° North 352 405 32,800 -843 Descending Seattle Center
Sat 12:14:31 PM 42.7300 -121.4383 345° North 358 412 32,000 -397 Descending Seattle Center
Sat 12:15:32 PM 42.8261 -121.4747 344° North 362 417 32,000  Level Seattle Center
Sat 12:16:33 PM 42.9203 -121.5075 346° North 353 406 32,000  Level Seattle Center
Sat 12:17:34 PM 43.0161 -121.5422 345° North 357 411 32,000  Level Seattle Center
Sat 12:18:35 PM 43.1119 -121.5803 344° North 359 413 32,000  Level Seattle Center
Sat 12:19:35 PM 43.2072 -121.6150 345° North 356 410 32,000  Level Seattle Center
Sat 12:20:36 PM 43.3028 -121.6492 345° North 358 412 32,000  Level Seattle Center
Sat 12:21:37 PM 43.4186 -121.6928 345° North 360 414 32,000  Level Seattle Center
Sat 12:22:38 PM 43.5161 -121.7278 345° North 363 418 32,000  Level Seattle Center
Sat 12:23:39 PM 43.6119 -121.7650 344° North 361 415 32,000  Level Seattle Center
Sat 12:25:40 PM 43.8042 -121.8369 345° North 359 413 32,000  Level Seattle Center
Sat 12:26:41 PM 43.8967 -121.8675 347° North 365 420 32,000  Level Seattle Center
Sat 12:27:42 PM 43.9967 -121.9031 346° North 366 421 32,000  Level Seattle Center
Sat 12:28:43 PM 44.0936 -121.9392 345° North 364 419 32,000  Level Seattle Center
Sat 12:29:44 PM 44.1886 -121.9772 344° North 359 413 32,000  Level Seattle Center
Sat 12:30:44 PM 44.3033 -122.0219 344° North 357 411 32,000  Level Seattle Center
Sat 12:36:23 PM 44.8484 -122.2340 344° North 361 415 32,000  Level FlightAware ADS-B
Sat 12:36:55 PM 44.9003 -122.2540 345° North 361 415 32,000  Level FlightAware ADS-B
Sat 12:37:26 PM 44.9498 -122.2740 344° North 362 417 32,000  Level FlightAware ADS-B
Sat 12:38:13 PM 45.0251 -122.3030 345° North 362 417 32,000  Level FlightAware ADS-B
Sat 12:38:51 PM 45.0870 -122.3280 344° North 362 417 32,000  Level FlightAware ADS-B
Sat 12:39:22 PM 45.1361 -122.3470 345° North 362 417 32,000  Level FlightAware ADS-B
Sat 12:40:00 PM 45.1986 -122.3720 344° North 362 417 32,000  Level FlightAware ADS-B
Sat 12:40:32 PM 45.2491 -122.3920 344° North 361 415 32,000  Level FlightAware ADS-B
Sat 12:41:09 PM 45.3083 -122.4150 345° North 360 414 32,000  Level FlightAware ADS-B
Sat 12:41:42 PM 45.3627 -122.4370 344° North 359 413 32,000  Level FlightAware ADS-B
Sat 12:42:13 PM 45.4118 -122.4560 345° North 359 413 32,000  Level FlightAware ADS-B
Sat 12:42:44 PM 45.4608 -122.4760 344° North 358 412 32,000  Level FlightAware ADS-B
Sat 12:43:24 PM 45.5245 -122.5010 345° North 359 413 32,000  Level FlightAware ADS-B
Sat 12:43:54 PM 45.5730 -122.5210 344° North 360 414 32,000  Level FlightAware ADS-B
Sat 12:44:40 PM 45.6458 -122.5500 344° North 359 413 32,000  Level FlightAware ADS-B
Sat 12:45:12 PM 45.6965 -122.5710 344° North 358 412 32,000  Level FlightAware ADS-B
Sat 12:45:43 PM 45.7460 -122.5900 345° North 359 413 32,000  Level FlightAware ADS-B
Sat 12:46:14 PM 45.7968 -122.6040 349° North 360 414 32,000  Level FlightAware ADS-B
Sat 12:46:45 PM 45.8477 -122.6160 351° North 361 415 32,000  Level FlightAware ADS-B
Sat 12:47:15 PM 45.8974 -122.6280 350° North 360 414 32,000  Level FlightAware ADS-B
Sat 12:47:45 PM 45.9468 -122.6400 350° North 361 415 32,000  Level FlightAware ADS-B
Sat 12:48:15 PM 45.9963 -122.6530 350° North 361 415 32,000  Level FlightAware ADS-B
Sat 12:48:46 PM 46.0465 -122.6650 351° North 362 417 32,000  Level FlightAware ADS-B
Sat 12:49:16 PM 46.0962 -122.6780 350° North 363 418 32,000 -436 Level FlightAware ADS-B
Sat 12:49:41 PM 46.1379 -122.6870 351° North 356 410 31,600 -982 Descending FlightAware ADS-B
Sat 12:50:11 PM 46.1871 -122.6960 353° North 359 413 31,100 -1,000 Descending FlightAware ADS-B
Sat 12:50:41 PM 46.2372 -122.7060 352° North 362 417 30,600 -984 Descending FlightAware ADS-B
Sat 12:51:12 PM 46.2870 -122.7150 353° North 361 415 30,100 -1,250 Descending FlightAware ADS-B
Sat 12:51:29 PM 46.3166 -122.7210 352° North 361 415 29,600 -2,043 Descending FlightAware ADS-B
Sat 12:51:59 PM 46.3662 -122.7240 358° North 358 412 28,500 -2,262 Descending FlightAware ADS-B
Sat 12:52:30 PM 46.4163 -122.7260 358° North 358 412 27,300 -2,361 Descending FlightAware ADS-B
Sat 12:53:00 PM 46.4659 -122.7270 359° North 357 411 26,100 -2,516 Descending FlightAware ADS-B
Sat 12:53:32 PM 46.5198 -122.7290 359° North 358 412 24,700 -2,476 Descending FlightAware ADS-B
Sat 12:54:03 PM 46.5699 -122.7310 358° North 359 413 23,500 -2,459 Descending FlightAware ADS-B
Sat 12:54:33 PM 46.6206 -122.7330 358° North 359 413 22,200 -2,500 Descending FlightAware ADS-B
Sat 12:55:03 PM 46.6705 -122.7350 358° North 349 402 21,000 -2,262 Descending FlightAware ADS-B
Sat 12:55:34 PM 46.7173 -122.7360 359° North 330 380 19,900 -2,069 Descending FlightAware ADS-B
Sat 12:56:01 PM 46.7583 -122.7380 358° North 325 374 19,000 -1,800 Descending FlightAware ADS-B
Sat 12:56:04 PM 46.7631 -122.7380 360° North 324 373 19,000 -857 Level FlightAware ADS-B
Sat 12:56:08 PM 46.7698 -122.7370 North 324 373 18,900 -1,500 Descending FlightAware ADS-B
Sat 12:56:12 PM 46.7758 -122.7360 North 322 371 18,800 -667 Descending FlightAware ADS-B
Sat 12:56:17 PM 46.7828 -122.7330 16° North 321 369 18,800 -1,091 Level FlightAware ADS-B
Sat 12:56:23 PM 46.7907 -122.7280 23° Northeast 322 371 18,600 -1,800 Descending FlightAware ADS-B
Sat 12:56:27 PM 46.7964 -122.7240 26° Northeast 324 373 18,500 -1,636 Descending FlightAware ADS-B
Sat 12:56:34 PM 46.8043 -122.7160 35° Northeast 328 377 18,300 -2,000 Descending FlightAware ADS-B
Sat 12:56:57 PM 46.8322 -122.6840 38° Northeast 330 380 17,500 -2,217 Descending FlightAware ADS-B
Sat 12:57:20 PM 46.8591 -122.6510 40° Northeast 334 384 16,600 -2,143 Descending FlightAware ADS-B
Sat 12:57:39 PM 46.8815 -122.6250 38° Northeast 329 379 16,000 -2,129 Descending FlightAware ADS-B
Sat 12:57:51 PM 46.8965 -122.6085 37° Northeast 358 412 15,500 -2,000 Descending FlightAware ADS-B
Sat 12:58:21 PM 46.9332 -122.5680 37° Northeast 329 379 14,600 -1,846 Descending FlightAware ADS-B
Sat 12:58:30 PM 46.9445 -122.5590 29° Northeast 311 358 14,300 -1,429 Descending FlightAware ADS-B
Sat 12:58:42 PM 46.9605 -122.5520 17° North 304 350 14,100 -1,286 Descending FlightAware ADS-B
Sat 12:59:12 PM 47.0012 -122.5340 17° North 306 352 13,400 -1,279 Descending FlightAware ADS-B
Sat 12:59:43 PM 47.0425 -122.5160 17° North 305 351 12,800 -1,245 Descending FlightAware ADS-B
Sat 01:00:05 PM 47.0727 -122.5030 16° North 304 350 12,300 -1,400 Descending FlightAware ADS-B
Sat 01:00:13 PM 47.0841 -122.4990 13° North 303 349 12,100 -1,371 Descending FlightAware ADS-B
Sat 01:00:40 PM 47.1213 -122.4920 North 297 342 11,500 -1,241 Descending FlightAware ADS-B
Sat 01:01:11 PM 47.1622 -122.4850 North 291 335 10,900 -1,180 Descending FlightAware ADS-B
Sat 01:01:41 PM 47.2015 -122.4780 North 271 312 10,300 -1,174 Descending FlightAware ADS-B
Sat 01:01:57 PM 47.2205 -122.4750 North 267 307 10,000 -1,313 Descending FlightAware ADS-B
Sat 01:02:13 PM 47.2400 -122.4720 North 262 302 9,600 -1,161 Descending FlightAware ADS-B
Sat 01:02:28 PM 47.2582 -122.4690 North 262 302 9,400 -857 Descending FlightAware ADS-B
Sat 01:02:41 PM 47.2741 -122.4670 North 257 296 9,200 -857 Descending FlightAware ADS-B
Sat 01:02:56 PM 47.2912 -122.4640 North 245 282 9,000 -800 Descending FlightAware ADS-B
Sat 01:03:11 PM 47.3078 -122.4620 North 232 267 8,800 -1,000 Descending FlightAware ADS-B
Sat 01:03:26 PM 47.3236 -122.4600 North 222 255 8,500 -1,161 Descending FlightAware ADS-B
Sat 01:03:42 PM 47.3393 -122.4570 North 218 251 8,200 -1,286 Descending FlightAware ADS-B
Sat 01:03:54 PM 47.3510 -122.4550 North 216 249 7,900 -1,125 Descending FlightAware ADS-B
Sat 01:03:58 PM 47.3554 -122.4550 360° North 213 245 7,900 -667 Level FlightAware ADS-B
Sat 01:04:03 PM 47.3602 -122.4550 360° North 210 242 7,800 -1,500 Descending FlightAware ADS-B
Sat 01:04:18 PM 47.3748 -122.4550 360° North 210 242 7,400 -1,667 Descending FlightAware ADS-B
Sat 01:04:39 PM 47.3948 -122.4570 356° North 210 242 6,800 -1,548 Descending FlightAware ADS-B
Sat 01:04:49 PM 47.4053 -122.4570 360° North 212 244 6,600 -889 Descending FlightAware ADS-B
Sat 01:05:06 PM 47.4212 -122.4580 358° North 206 237 6,400 -188 Descending FlightAware ADS-B
Sat 01:05:21 PM 47.4355 -122.4590 357° North 206 237 6,500  Climbing FlightAware ADS-B
Sat 01:05:30 PM 47.4443 -122.4590 360° North 211 243 6,400 -250 Descending FlightAware ADS-B
Sat 01:05:45 PM 47.4594 -122.4600 357° North 212 244 6,400  Level FlightAware ADS-B
Sat 01:06:02 PM 47.4753 -122.4610 358° North 213 245 6,400  Level FlightAware ADS-B
Sat 01:06:17 PM 47.4900 -122.4620 357° North 213 245 6,400 -194 Level FlightAware ADS-B
Sat 01:06:33 PM 47.5059 -122.4630 358° North 211 243 6,300 -750 Descending FlightAware ADS-B
Sat 01:06:49 PM 47.5213 -122.4640 357° North 212 244 6,000 -1,091 Descending FlightAware ADS-B
Sat 01:06:55 PM 47.5278 -122.4650 354° North 213 245 5,900 -1,333 Descending FlightAware ADS-B
Sat 01:06:58 PM 47.5308 -122.4640 13° North 212 244 5,800 -1,500 Descending FlightAware ADS-B
Sat 01:07:03 PM 47.5360 -122.4640 360° North 211 243 5,700 -900 Descending FlightAware ADS-B
Sat 01:07:18 PM 47.5496 -122.4630 North 211 243 5,500 -1,000 Descending FlightAware ADS-B
Sat 01:07:33 PM 47.5643 -122.4610 North 211 243 5,200 -1,200 Descending FlightAware ADS-B
Sat 01:07:48 PM 47.5788 -122.4590 North 211 243 4,900 -1,385 Descending FlightAware ADS-B
Sat 01:07:59 PM 47.5903 -122.4580 North 212 244 4,600 -1,043 Descending FlightAware ADS-B
Sat 01:08:11 PM 47.6021 -122.4570 North 209 241 4,500 -214 Descending FlightAware ADS-B
Sat 01:08:27 PM 47.6173 -122.4560 North 214 246 4,500 -176 Level FlightAware ADS-B
Sat 01:08:45 PM 47.6355 -122.4550 North 217 250 4,400 -200 Descending FlightAware ADS-B
Sat 01:08:57 PM 47.6468 -122.4540 North 216 249 4,400  Level FlightAware ADS-B
Sat 01:09:15 PM 47.6646 -122.4530 North 214 246 4,400  Level FlightAware ADS-B
Sat 01:09:24 PM 47.6745 -122.4520 North 215 247 4,400  Level FlightAware ADS-B
Sat 01:09:29 PM 47.6786 -122.4500 18° North 214 246 4,400  Level FlightAware ADS-B
Sat 01:09:34 PM 47.6829 -122.4460 32° Northeast 210 242 4,400  Level FlightAware ADS-B
Sat 01:09:37 PM 47.6853 -122.4430 40° Northeast 208 239 4,400  Level FlightAware ADS-B
Sat 01:09:40 PM 47.6875 -122.4400 43° Northeast 205 236 4,400 375 Level FlightAware ADS-B
Sat 01:09:53 PM 47.6924 -122.4240 66° East 194 223 4,500 316 Climbing FlightAware ADS-B
Sat 01:09:59 PM 47.6936 -122.4170 76° East 188 216 4,500  Level FlightAware ADS-B
Sat 01:10:15 PM 47.6962 -122.3980 79° East 184 212 4,500 -188 Level FlightAware ADS-B
Sat 01:10:31 PM 47.6987 -122.3780 79° East 180 207 4,400 -188 Descending FlightAware ADS-B
Sat 01:10:47 PM 47.7010 -122.3590 80° East 182 209 4,400  Level FlightAware ADS-B
Sat 01:10:50 PM 47.7011 -122.3540 88° East 184 212 4,400  Level FlightAware ADS-B
Sat 01:10:55 PM 47.7006 -122.3490 98° East 187 215 4,400  Level FlightAware ADS-B
Sat 01:11:01 PM 47.6984 -122.3410 112° Southeast 189 217 4,400  Level FlightAware ADS-B
Sat 01:11:07 PM 47.6954 -122.3350 127° Southeast 190 219 4,400  Level FlightAware ADS-B
Sat 01:11:11 PM 47.6927 -122.3320 143° Southeast 189 217 4,400  Level FlightAware ADS-B
Sat 01:11:15 PM 47.6900 -122.3290 143° Southeast 189 217 4,400 -400 Level FlightAware ADS-B
Sat 01:11:26 PM 47.6814 -122.3230 155° Southeast 185 213 4,300 -706 Descending FlightAware ADS-B
Sat 01:11:32 PM 47.6760 -122.3200 159° South 181 208 4,200 -1,091 Descending FlightAware ADS-B
Sat 01:11:37 PM 47.6728 -122.3190 168° South 180 207 4,100 -1,500 Descending FlightAware ADS-B
Sat 01:11:40 PM 47.6701 -122.3180 166° South 181 208 4,000 -1,714 Descending FlightAware ADS-B
Sat 01:11:44 PM 47.6668 -122.3170 168° South 182 209 3,900 -1,091 Descending FlightAware ADS-B
Sat 01:11:51 PM 47.6607 -122.3170 180° South 183 211 3,800 -1,059 Descending FlightAware ADS-B
Sat 01:12:01 PM 47.6520 -122.3170 180° South 183 211 3,600 -900 Descending FlightAware ADS-B
Sat 01:12:11 PM 47.6435 -122.3160 175° South 184 212 3,500 -960 Descending FlightAware ADS-B
Sat 01:12:26 PM 47.6312 -122.3160 180° South 183 211 3,200 -1,154 Descending FlightAware ADS-B
Sat 01:12:37 PM 47.6217 -122.3160 180° South 181 208 3,000 -923 Descending FlightAware ADS-B
Sat 01:12:52 PM 47.6091 -122.3170 183° South 178 205 2,800 -968 Descending FlightAware ADS-B
Sat 01:13:08 PM 47.5964 -122.3170 180° South 178 205 2,500 -1,043 Descending FlightAware ADS-B
Sat 01:13:15 PM 47.5902 -122.3170 180° South 177 204 2,400 -1,043 Descending FlightAware ADS-B
Sat 01:13:31 PM 47.5776 -122.3170 180° South 175 201 2,100 -968 Descending FlightAware ADS-B
Sat 01:13:46 PM 47.5658 -122.3170 180° South 172 198 1,900 -783 Descending FlightAware ADS-B
Sat 01:13:54 PM 47.5593 -122.3170 180° South 173 199 1,800 -1,125 Descending FlightAware ADS-B
Sat 01:14:02 PM 47.5527 -122.3170 180° South 171 197 1,600 -1,043 Descending FlightAware ADS-B
Sat 01:14:17 PM 47.5411 -122.3170 180° South 158 182 1,400 -643 Descending FlightAware ADS-B
Sat 01:14:30 PM 47.5323 -122.3170 180° South 144 166 1,300 -621 Descending FlightAware ADS-B
Sat 01:14:46 PM 47.5219 -122.3170 180° South 138 159 1,100 -828 Descending FlightAware ADS-B
Sat 01:14:59 PM 47.5140 -122.3170 180° South 135 155 900 -828 Descending FlightAware ADS-B
Sat 01:15:15 PM 47.5042 -122.3180 184° South 135 155 700 -857 Descending FlightAware ADS-B
Sat 01:15:20 PM 47.5006 -122.3180 180° South 133 153 600 -857 Descending FlightAware ADS-B
Sat 01:15:36 PM 47.4906 -122.3180 180° South 132 152 400 -581 Descending FlightAware ADS-B
Sat 01:15:51 PM 47.4815 -122.3180 180° South 131 151 300  Descending FlightAware ADS-B
Sat 01:16:25 PM 47.4631 -122.3178 180° South 132 152 400  Climbing Seattle Center
Sat 01:17:26 PM 47.4311 -122.3192 182° South 133 153 300 -98 Descending Seattle Center

Login

Don't have an account? Register now (free) for customized features, flight alerts, and more!